Time;durP1;ratioP1;P1;durP2;ratioP2;P2;SDS_P1;SDS_P2;PMS_P1;PMS_P2;Temp;Humidity;BMP_temperature;BMP_pressure;BME280_temperature;BME280_humidity;BME280_pressure;Samples;Min_cycle;Max_cycle;Signal;HPM_P1;HPM_P2
2020/12/08 00:01:49;;;;;;;3.72;1.90;;;;;;;5.56;100.00;100019.50;5068857;28;20047;-70
2020/12/08 00:04:14;;;;;;;3.03;2.15;;;;;;;5.51;100.00;100011.00;5068889;28;20020;-70
2020/12/08 00:34:38;;;;;;;2.67;2.20;;;;;;;5.40;100.00;100005.59;5046369;28;20056;-73
2020/12/08 00:37:05;;;;;;;3.03;2.72;;;;;;;5.45;100.00;100027.41;5068690;28;20059;-73
2020/12/08 00:39:31;;;;;;;2.72;2.35;;;;;;;5.44;100.00;100018.56;5068424;28;20032;-73
2020/12/08 00:41:56;;;;;;;4.55;2.70;;;;;;;5.43;100.00;100014.22;5068790;28;20035;-73
2020/12/08 00:44:21;;;;;;;3.17;2.85;;;;;;;5.42;100.00;100015.16;5068167;28;20024;-70
2020/12/08 00:46:51;;;;;;;3.85;2.25;;;;;;;5.33;100.00;99991.03;5068258;28;20111;-71
2020/12/08 00:49:17;;;;;;;3.58;2.50;;;;;;;5.36;99.96;100007.66;5068610;28;20020;-71
2020/12/08 00:51:43;;;;;;;3.17;2.53;;;;;;;5.40;100.00;100009.13;5070945;28;20466;-71
2020/12/08 00:54:08;;;;;;;3.00;2.67;;;;;;;5.36;100.00;100007.66;5072051;28;20082;-70
2020/12/08 00:56:34;;;;;;;3.20;2.42;;;;;;;5.37;100.00;100004.00;5071713;28;20073;-70
2020/12/08 00:58:59;;;;;;;4.07;2.72;;;;;;;5.42;100.00;100014.31;5069791;28;20379;-70
2020/12/08 01:01:26;;;;;;;3.38;2.80;;;;;;;5.40;99.99;100008.25;5072446;28;20024;-71
2020/12/08 01:03:52;;;;;;;6.20;2.90;;;;;;;5.29;100.00;99993.06;5072041;28;20534;-70
2020/12/08 01:06:17;;;;;;;2.85;2.40;;;;;;;5.41;99.55;100012.59;5072170;28;20158;-70
2020/12/08 01:08:42;;;;;;;3.00;2.70;;;;;;;5.31;100.00;99996.47;5072072;28;20036;-71
2020/12/08 01:11:08;;;;;;;4.00;3.40;;;;;;;5.40;99.91;100018.91;5072128;28;20033;-71
2020/12/08 01:13:36;;;;;;;4.20;3.47;;;;;;;5.24;100.00;99999.69;5072440;28;20064;-71
2020/12/08 01:16:04;;;;;;;4.25;3.20;;;;;;;5.37;100.00;100021.78;5072077;28;20063;-71
2020/12/08 01:18:30;;;;;;;4.63;3.25;;;;;;;5.37;100.00;100037.72;5072119;28;20055;-71
2020/12/08 01:20:56;;;;;;;4.55;3.40;;;;;;;5.26;100.00;100011.91;5072497;28;20067;-70
2020/12/08 01:23:23;;;;;;;2.97;2.72;;;;;;;5.20;100.00;100001.72;5070423;28;20063;-71
2020/12/08 01:25:49;;;;;;;5.00;2.40;;;;;;;5.33;100.00;100033.59;5053578;28;20529;-71
2020/12/08 01:28:17;;;;;;;4.65;2.17;;;;;;;5.22;100.00;100026.38;5071580;28;20020;-71
2020/12/08 01:30:42;;;;;;;2.40;2.13;;;;;;;5.19;100.00;100017.78;5071928;28;20025;-71
2020/12/08 01:33:08;;;;;;;2.88;2.10;;;;;;;5.18;99.67;100019.56;5071979;28;20454;-71
2020/12/08 01:35:33;;;;;;;2.33;1.60;;;;;;;5.31;99.23;100040.81;5071655;28;20045;-71
2020/12/08 01:37:59;;;;;;;3.67;1.80;;;;;;;5.32;99.45;100029.25;5071677;28;20032;-71
2020/12/08 01:40:24;;;;;;;2.83;1.95;;;;;;;5.15;98.92;100009.16;5072059;28;20024;-71
2020/12/08 01:42:49;;;;;;;1.88;1.58;;;;;;;5.29;98.44;100035.59;5071530;28;20021;-71
2020/12/08 01:45:15;;;;;;;2.60;1.70;;;;;;;5.19;98.42;100018.59;5071627;28;20028;-71
2020/12/08 01:47:41;;;;;;;3.40;1.85;;;;;;;5.18;97.97;100024.03;5053553;28;20031;-71
2020/12/08 01:50:07;;;;;;;2.47;2.00;;;;;;;5.28;98.50;100041.88;5071627;28;20082;-71
2020/12/08 01:52:32;;;;;;;2.63;1.70;;;;;;;5.22;98.70;100031.69;5071498;28;20068;-71
2020/12/08 01:55:02;;;;;;;1.70;1.60;;;;;;;5.24;98.33;100031.56;5071645;28;20081;-70
2020/12/08 01:57:27;;;;;;;1.60;1.50;;;;;;;5.17;97.87;100022.34;5071536;28;20028;-71
2020/12/08 01:59:53;;;;;;;3.42;1.70;;;;;;;5.20;98.10;100030.97;5071251;28;20074;-71
2020/12/08 02:02:18;;;;;;;2.63;1.83;;;;;;;5.26;98.24;100045.63;5070072;28;20074;-71
2020/12/08 02:04:44;;;;;;;3.28;1.92;;;;;;;5.04;98.05;100009.06;5071342;28;20024;-71
2020/12/08 02:07:09;;;;;;;2.38;2.15;;;;;;;5.22;98.62;100037.00;5071396;28;20028;-71
2020/12/08 02:09:36;;;;;;;2.80;1.95;;;;;;;5.06;98.46;100014.28;5053511;28;20070;-71
2020/12/08 02:12:03;;;;;;;2.38;1.77;;;;;;;4.97;98.48;99997.19;5071178;28;20028;-71
2020/12/08 02:14:28;;;;;;;1.98;1.55;;;;;;;5.07;98.55;100022.16;5071715;28;20025;-71
2020/12/08 02:16:53;;;;;;;1.75;1.50;;;;;;;5.19;98.08;100039.88;5071517;28;20145;-71
2020/12/08 02:19:19;;;;;;;2.03;1.60;;;;;;;5.16;98.05;100032.09;5053056;28;20031;-71
2020/12/08 02:21:44;;;;;;;2.33;1.75;;;;;;;5.18;97.90;100043.50;5070959;28;20020;-71
2020/12/08 02:24:10;;;;;;;1.63;1.40;;;;;;;5.22;97.78;100047.63;5071166;28;20048;-71
2020/12/08 02:26:35;;;;;;;1.95;1.60;;;;;;;5.20;98.03;100035.41;5071100;28;20098;-71
2020/12/08 02:29:01;;;;;;;2.17;1.65;;;;;;;4.90;97.79;99987.09;5068793;28;20356;-71
2020/12/08 02:31:26;;;;;;;3.88;1.50;;;;;;;5.12;97.94;100027.97;5071122;28;20052;-71
2020/12/08 02:33:52;;;;;;;2.10;1.60;;;;;;;5.14;97.37;100027.88;5070834;28;20046;-71
2020/12/08 02:36:18;;;;;;;1.90;1.73;;;;;;;5.14;98.07;100036.69;5070401;28;20489;-71
2020/12/08 02:38:43;;;;;;;3.47;1.90;;;;;;;5.16;98.37;100037.44;5070782;28;20525;-71
2020/12/08 02:41:09;;;;;;;1.80;1.65;;;;;;;5.14;98.39;100039.34;5070873;28;20052;-71
2020/12/08 02:43:34;;;;;;;1.98;1.77;;;;;;;5.13;98.12;100035.00;5070757;28;20028;-74
2020/12/08 02:46:00;;;;;;;2.85;2.00;;;;;;;5.03;98.03;100017.97;5069796;28;20082;-74
2020/12/08 02:48:26;;;;;;;2.28;1.88;;;;;;;4.95;97.75;99999.06;5070489;28;20020;-74
2020/12/08 02:50:51;;;;;;;2.55;2.17;;;;;;;5.07;97.35;100027.47;5070315;28;20052;-74
2020/12/08 02:53:17;;;;;;;3.22;2.10;;;;;;;5.06;97.55;100031.06;5070577;28;20462;-74
2020/12/08 02:55:49;;;;;;;3.42;2.03;;;;;;;5.01;97.66;100030.53;5069040;28;20485;-74
2020/12/08 02:58:16;;;;;;;2.42;1.83;;;;;;;5.10;97.53;100045.84;5070148;28;20031;-74
2020/12/08 03:00:41;;;;;;;1.90;1.70;;;;;;;5.07;97.80;100030.13;5070322;28;20485;-72
2020/12/08 03:03:07;;;;;;;2.22;2.00;;;;;;;5.04;97.36;100027.66;5070362;28;20025;-71
2020/12/08 03:05:33;;;;;;;2.20;2.00;;;;;;;5.12;97.03;100045.75;5070193;28;20036;-71
2020/12/08 03:07:58;;;;;;;4.07;2.10;;;;;;;5.12;97.28;100035.94;5070309;28;20032;-71
2020/12/08 03:10:24;;;;;;;3.60;2.08;;;;;;;4.99;96.83;100018.31;5070278;28;20108;-71
2020/12/08 03:12:49;;;;;;;3.00;2.17;;;;;;;4.89;96.80;100006.63;5069915;28;20501;-71
2020/12/08 03:15:15;;;;;;;2.35;2.08;;;;;;;5.02;97.31;100029.56;5069696;28;20024;-72
2020/12/08 03:17:40;;;;;;;2.35;2.15;;;;;;;5.06;97.21;100049.66;5069904;28;20446;-71
2020/12/08 03:20:06;;;;;;;3.10;2.25;;;;;;;5.06;97.17;100038.19;5069642;28;20058;-71
2020/12/08 03:22:32;;;;;;;4.78;2.00;;;;;;;4.97;97.14;100036.19;5070129;28;20024;-72
2020/12/08 03:24:57;;;;;;;2.85;2.30;;;;;;;4.96;97.14;100032.66;5052224;28;20024;-71
2020/12/08 03:27:23;;;;;;;5.45;2.33;;;;;;;5.06;97.51;100064.78;5069803;28;20032;-72
2020/12/08 03:29:48;;;;;;;2.60;2.40;;;;;;;5.04;97.47;100064.88;5069774;28;20032;-72
2020/12/08 03:32:14;;;;;;;2.90;2.58;;;;;;;5.05;97.64;100065.72;5051846;28;20024;-72
2020/12/08 03:34:39;;;;;;;3.85;3.20;;;;;;;4.67;97.26;99997.47;5069637;28;20025;-72
2020/12/08 03:37:05;;;;;;;4.93;3.95;;;;;;;4.93;96.85;100045.31;5069537;28;20544;-74
2020/12/08 03:39:30;;;;;;;5.40;4.13;;;;;;;4.99;97.00;100058.19;5070036;28;20519;-72
2020/12/08 03:41:57;;;;;;;4.15;3.13;;;;;;;4.93;97.27;100055.94;5069843;28;20020;-72
2020/12/08 03:44:23;;;;;;;3.33;2.95;;;;;;;4.89;97.72;100054.44;5069543;28;20386;-74
2020/12/08 03:46:48;;;;;;;3.10;2.80;;;;;;;4.98;97.18;100069.75;5069023;28;20020;-74
2020/12/08 03:49:13;;;;;;;3.10;2.80;;;;;;;4.96;97.20;100061.06;5067553;28;20067;-75
2020/12/08 03:51:39;;;;;;;3.05;2.78;;;;;;;4.68;96.68;100009.81;5069218;28;20115;-74
2020/12/08 03:54:04;;;;;;;3.10;2.80;;;;;;;4.79;96.90;100035.63;5051071;28;20075;-75
2020/12/08 03:56:30;;;;;;;2.67;2.45;;;;;;;4.78;96.92;100028.63;5069374;28;20477;-74
2020/12/08 03:58:55;;;;;;;2.88;2.63;;;;;;;4.92;96.53;100049.78;5068732;28;20032;-75
2020/12/08 04:01:22;;;;;;;3.17;2.92;;;;;;;4.92;96.83;100044.47;5068950;28;20116;-75
2020/12/08 04:03:50;;;;;;;3.22;2.92;;;;;;;4.94;97.02;100053.19;5049992;28;20146;-75
2020/12/08 04:06:15;;;;;;;3.40;3.05;;;;;;;4.69;97.38;100008.88;5068586;28;20031;-74
2020/12/08 04:08:42;;;;;;;3.08;2.88;;;;;;;4.96;97.58;100059.22;5067524;28;20047;-75
2020/12/08 04:11:09;;;;;;;3.88;3.40;;;;;;;4.83;97.18;100020.34;5067520;28;20089;-74
2020/12/08 04:13:34;;;;;;;3.50;3.20;;;;;;;4.95;97.47;100048.69;5069409;28;20031;-74
2020/12/08 04:16:01;;;;;;;3.55;3.13;;;;;;;5.02;97.17;100056.16;5050995;28;20028;-75
2020/12/08 04:18:26;;;;;;;3.17;2.97;;;;;;;5.06;96.75;100067.44;5069141;28;20028;-74
2020/12/08 04:20:52;;;;;;;3.50;3.13;;;;;;;5.06;96.63;100078.06;5069080;28;20031;-75
2020/12/08 04:23:18;;;;;;;2.95;2.55;;;;;;;5.03;96.33;100073.78;5068909;28;20036;-74
2020/12/08 04:25:45;;;;;;;3.05;2.75;;;;;;;5.01;95.73;100067.75;5068245;28;20032;-75
2020/12/08 04:28:10;;;;;;;3.28;2.55;;;;;;;4.95;95.67;100051.38;5050944;28;20530;-75
2020/12/08 04:30:37;;;;;;;2.63;2.42;;;;;;;4.96;95.75;100066.38;5068952;28;20115;-75
2020/12/08 04:33:03;;;;;;;3.40;2.78;;;;;;;5.03;95.38;100075.63;5068758;28;20316;-72
2020/12/08 04:35:29;;;;;;;2.75;2.30;;;;;;;5.00;95.96;100070.50;5069156;28;20041;-72
2020/12/08 04:37:54;;;;;;;3.45;2.67;;;;;;;4.89;95.87;100042.00;5068519;28;20029;-72
2020/12/08 04:40:20;;;;;;;2.30;2.10;;;;;;;4.97;96.27;100066.25;5068227;28;20696;-72
2020/12/08 04:42:47;;;;;;;2.03;1.92;;;;;;;5.03;96.33;100070.31;5068320;28;20397;-72
2020/12/08 04:45:13;;;;;;;3.45;2.38;;;;;;;4.86;96.73;100063.47;5068036;28;20020;-72
2020/12/08 04:47:43;;;;;;;2.55;2.35;;;;;;;4.98;96.73;100089.22;5068353;28;20028;-75
2020/12/08 04:50:09;;;;;;;4.43;2.55;;;;;;;5.01;96.76;100101.44;5068501;28;20024;-75
2020/12/08 04:52:34;;;;;;;3.90;2.72;;;;;;;4.80;96.32;100071.03;5068417;28;20420;-75
2020/12/08 04:55:01;;;;;;;2.67;2.47;;;;;;;4.92;96.34;100097.59;5068464;28;20028;-75
2020/12/08 04:57:26;;;;;;;2.65;2.17;;;;;;;4.82;96.00;100090.34;5067240;28;20028;-75
2020/12/08 05:00:09;;;;;;;2.63;2.33;;;;;;;4.91;95.92;100098.56;5068302;28;20405;-73
2020/12/08 05:02:51;;;;;;;3.35;2.55;;;;;;;4.96;96.29;100112.38;5065328;28;20033;-75
2020/12/08 05:05:18;;;;;;;2.60;2.13;;;;;;;4.75;96.39;100087.28;5068468;28;20074;-74
2020/12/08 05:07:44;;;;;;;2.90;2.50;;;;;;;4.69;96.12;100072.63;5049905;28;20035;-75
2020/12/08 05:10:10;;;;;;;2.38;2.17;;;;;;;4.89;96.72;100108.44;5067493;28;20024;-74
2020/12/08 05:12:35;;;;;;;3.13;2.60;;;;;;;4.93;97.12;100111.75;5049889;28;20111;-74
2020/12/08 05:15:01;;;;;;;2.67;2.42;;;;;;;4.77;96.73;100085.34;5049804;28;20025;-74
2020/12/08 05:17:28;;;;;;;2.92;2.33;;;;;;;4.88;96.59;100100.56;5068128;28;20028;-74
2020/12/08 05:20:08;;;;;;;5.68;2.22;;;;;;;4.90;96.06;100114.63;5067047;28;20020;-74
2020/12/08 05:22:34;;;;;;;2.92;2.28;;;;;;;4.91;96.15;100111.00;5066698;28;20431;-74
2020/12/08 05:25:13;;;;;;;3.05;2.63;;;;;;;4.90;96.31;100114.63;5067611;28;20415;-74
2020/12/08 05:27:49;;;;;;;2.72;2.50;;;;;;;4.74;96.60;100097.03;5048211;28;20043;-74
2020/12/08 05:30:14;;;;;;;3.40;2.72;;;;;;;4.85;96.59;100114.91;5064523;28;20146;-74
2020/12/08 05:32:41;;;;;;;3.42;2.88;;;;;;;4.61;96.65;100082.88;5066662;28;20501;-74
2020/12/08 05:35:09;;;;;;;3.97;2.83;;;;;;;4.82;96.59;100111.59;5066182;28;20398;-74
2020/12/08 05:37:43;;;;;;;3.00;2.33;;;;;;;4.82;96.64;100115.13;5068439;28;20119;-74
2020/12/08 05:40:26;;;;;;;4.77;2.67;;;;;;;4.62;96.43;100089.06;5067827;28;20576;-74
2020/12/08 05:42:54;;;;;;;3.47;2.72;;;;;;;4.78;96.90;100116.28;5070010;28;20052;-75
2020/12/08 05:45:21;;;;;;;2.38;2.17;;;;;;;4.77;96.51;100124.38;5069542;28;20481;-74
2020/12/08 05:47:48;;;;;;;5.40;2.13;;;;;;;4.78;96.33;100119.78;5069851;28;20082;-74
2020/12/08 05:50:15;;;;;;;3.15;2.25;;;;;;;4.69;96.10;100114.25;5069001;28;20021;-74
2020/12/08 05:52:46;;;;;;;4.65;2.45;;;;;;;4.72;95.52;100106.06;5069779;28;20498;-74
2020/12/08 05:55:21;;;;;;;4.45;2.83;;;;;;;4.65;95.71;100102.13;5069639;28;20020;-74
2020/12/08 05:57:47;;;;;;;6.20;2.63;;;;;;;4.63;96.24;100107.53;5069929;28;20493;-74
2020/12/08 06:00:26;;;;;;;4.65;2.70;;;;;;;4.77;96.12;100127.84;5068792;28;20036;-74
2020/12/08 06:03:07;;;;;;;3.20;2.55;;;;;;;4.71;95.67;100131.78;5069153;28;20111;-74
2020/12/08 06:05:33;;;;;;;3.92;2.60;;;;;;;4.66;95.54;100117.97;5050554;28;20060;-77
2020/12/08 06:08:11;;;;;;;4.40;2.67;;;;;;;4.70;95.73;100130.09;5069538;28;20064;-76
2020/12/08 06:10:43;;;;;;;4.68;2.42;;;;;;;4.78;95.49;100142.00;5067099;28;20032;-76
2020/12/08 06:13:09;;;;;;;3.97;2.22;;;;;;;4.80;95.33;100145.41;5048259;28;20115;-74
2020/12/08 06:15:39;;;;;;;4.20;2.20;;;;;;;4.81;95.14;100153.28;5069029;28;20131;-74
2020/12/08 06:18:05;;;;;;;2.78;1.88;;;;;;;4.78;94.84;100144.66;5069005;28;20025;-74
2020/12/08 06:20:30;;;;;;;2.05;1.50;;;;;;;4.66;94.62;100123.28;5068903;28;20066;-74
2020/12/08 06:22:57;;;;;;;2.35;1.60;;;;;;;4.84;94.78;100149.56;5069510;28;20299;-74
2020/12/08 06:25:23;;;;;;;2.25;1.65;;;;;;;4.84;94.61;100155.75;5069414;28;20027;-75
2020/12/08 06:27:49;;;;;;;2.50;1.95;;;;;;;4.70;94.54;100129.22;5069207;28;20066;-75
2020/12/08 06:30:22;;;;;;;4.53;2.42;;;;;;;4.74;95.07;100141.34;5066356;28;20048;-76
2020/12/08 06:32:48;;;;;;;3.08;1.90;;;;;;;4.64;95.17;100132.28;5069483;28;20028;-74
2020/12/08 06:35:16;;;;;;;3.90;2.10;;;;;;;4.78;94.94;100164.09;5065121;28;20045;-74
2020/12/08 06:37:45;;;;;;;3.63;2.20;;;;;;;4.61;94.99;100141.31;5069719;28;20509;-75
2020/12/08 06:40:13;;;;;;;4.32;2.53;;;;;;;4.73;94.54;100155.59;5068503;28;20115;-74
2020/12/08 06:42:39;;;;;;;6.22;3.15;;;;;;;4.67;94.31;100148.88;5069265;28;20115;-74
2020/12/08 06:45:10;;;;;;;4.25;2.55;;;;;;;4.52;94.16;100122.50;5067625;28;20044;-75
2020/12/08 06:47:35;;;;;;;2.28;2.08;;;;;;;4.77;94.27;100170.34;5069495;28;20138;-75
2020/12/08 06:50:01;;;;;;;2.78;2.00;;;;;;;4.82;94.04;100184.19;5068486;28;20570;-74
2020/12/08 06:52:26;;;;;;;2.08;1.42;;;;;;;4.67;93.79;100155.97;5069459;28;20021;-74
2020/12/08 06:54:59;;;;;;;1.92;1.42;;;;;;;4.82;93.20;100176.22;5069559;28;20028;-74
2020/12/08 06:57:25;;;;;;;2.88;1.63;;;;;;;4.70;92.90;100150.47;5050675;28;20481;-75
2020/12/08 07:00:00;;;;;;;3.22;1.50;;;;;;;4.69;92.77;100148.78;5069594;28;20067;-75
2020/12/08 07:02:26;;;;;;;3.20;2.50;;;;;;;4.85;92.68;100180.47;5068402;28;20036;-75
2020/12/08 07:04:52;;;;;;;3.15;1.55;;;;;;;4.73;92.86;100155.59;5070206;28;20074;-74
2020/12/08 07:07:17;;;;;;;2.45;1.70;;;;;;;4.65;92.83;100152.59;5070408;28;20025;-75
2020/12/08 07:09:43;;;;;;;3.25;1.58;;;;;;;4.89;92.83;100187.28;5069162;28;20073;-75
2020/12/08 07:12:08;;;;;;;2.67;1.58;;;;;;;4.88;92.96;100191.75;5070108;28;20028;-76
2020/12/08 07:14:36;;;;;;;5.00;1.75;;;;;;;4.77;92.70;100174.84;5069064;28;20032;-75
2020/12/08 07:17:02;;;;;;;3.30;1.70;;;;;;;4.72;92.77;100167.16;5070154;28;20036;-76
2020/12/08 07:19:29;;;;;;;13.80;3.70;;;;;;;4.92;92.28;100198.56;5070243;28;20168;-75
2020/12/08 07:21:59;;;;;;;1.52;1.35;;;;;;;4.92;91.49;100197.72;5051799;28;20055;-75
2020/12/08 07:24:26;;;;;;;3.05;1.60;;;;;;;4.91;91.68;100183.59;5049898;28;20115;-75
2020/12/08 07:26:58;;;;;;;2.08;1.45;;;;;;;4.93;91.61;100186.16;5070006;28;20028;-75
2020/12/08 07:29:24;;;;;;;2.72;1.45;;;;;;;4.98;91.22;100187.53;5049512;28;20114;-75
2020/12/08 07:31:49;;;;;;;2.55;1.80;;;;;;;4.88;91.11;100172.31;5051658;28;20020;-75
2020/12/08 07:34:15;;;;;;;2.67;1.63;;;;;;;4.88;91.44;100167.84;5051771;28;20038;-75
2020/12/08 07:36:40;;;;;;;2.50;1.60;;;;;;;5.03;90.73;100180.09;5069618;28;20091;-75
2020/12/08 07:39:18;;;;;;;1.58;1.27;;;;;;;5.02;90.79;100164.25;5069778;28;20024;-75
2020/12/08 07:41:43;;;;;;;2.85;1.80;;;;;;;5.05;90.25;100169.34;5070051;28;20020;-75
2020/12/08 07:44:14;;;;;;;3.15;2.03;;;;;;;5.08;90.67;100171.81;5069576;28;20031;-75
2020/12/08 07:46:50;;;;;;;5.93;2.10;;;;;;;5.12;90.85;100183.97;5051623;28;20440;-75
2020/12/08 07:49:16;;;;;;;3.28;2.13;;;;;;;4.94;91.60;100151.50;5069707;28;20506;-75
2020/12/08 07:51:41;;;;;;;3.67;2.38;;;;;;;5.09;91.66;100168.22;5051604;28;20032;-74
2020/12/08 07:54:07;;;;;;;3.70;2.38;;;;;;;5.09;91.40;100163.72;5069476;28;20481;-75
2020/12/08 07:56:37;;;;;;;3.45;2.05;;;;;;;5.21;91.28;100192.16;5069745;28;20031;-75
2020/12/08 07:59:06;;;;;;;2.78;2.08;;;;;;;4.97;91.00;100145.97;5051736;28;20415;-74
2020/12/08 08:01:44;;;;;;;3.53;2.00;;;;;;;5.24;90.69;100189.28;5067194;28;20052;-75
2020/12/08 08:04:11;;;;;;;2.92;2.00;;;;;;;5.25;90.71;100179.50;5069318;28;20031;-75
2020/12/08 08:06:36;;;;;;;4.70;1.80;;;;;;;5.20;90.56;100169.19;5051498;28;20113;-75
2020/12/08 08:09:05;;;;;;;2.72;1.83;;;;;;;5.37;90.02;100190.16;5069362;28;20553;-75
2020/12/08 08:11:31;;;;;;;2.35;1.50;;;;;;;5.34;89.81;100184.19;5069673;28;20032;-75
2020/12/08 08:13:57;;;;;;;2.25;1.52;;;;;;;5.25;89.27;100175.03;5068997;28;20032;-75
2020/12/08 08:16:22;;;;;;;2.50;1.70;;;;;;;5.33;89.51;100185.13;5069234;28;20052;-75
2020/12/08 08:18:48;;;;;;;2.22;1.75;;;;;;;5.51;89.37;100210.50;5069059;28;20466;-76
2020/12/08 08:21:14;;;;;;;2.65;1.73;;;;;;;5.18;89.24;100149.81;5051331;28;20030;-75
2020/12/08 08:23:39;;;;;;;2.40;1.60;;;;;;;5.44;89.26;100194.09;5051047;28;20020;-75
2020/12/08 08:26:06;;;;;;;2.72;1.90;;;;;;;5.58;88.53;100209.94;5069189;28;20046;-75
2020/12/08 08:28:32;;;;;;;2.40;2.08;;;;;;;5.46;88.87;100186.88;5051201;28;20016;-75
2020/12/08 08:30:58;;;;;;;2.72;2.20;;;;;;;5.49;89.44;100191.13;5069087;28;20025;-75
2020/12/08 08:33:23;;;;;;;4.53;2.05;;;;;;;5.66;88.71;100207.59;5069102;28;20031;-75
2020/12/08 08:35:49;;;;;;;3.28;1.92;;;;;;;5.52;88.17;100181.13;5050803;28;20045;-75
2020/12/08 08:38:15;;;;;;;2.60;2.05;;;;;;;5.75;88.44;100214.09;5068953;28;20385;-75
2020/12/08 08:40:40;;;;;;;3.20;2.10;;;;;;;5.68;88.33;100181.72;5069232;28;20025;-75
2020/12/08 08:43:06;;;;;;;1.67;1.58;;;;;;;5.81;88.33;100197.72;5068969;28;20032;-75
2020/12/08 08:45:31;;;;;;;2.40;1.77;;;;;;;5.80;87.84;100183.53;5069044;28;20101;-75
2020/12/08 08:47:57;;;;;;;2.38;1.83;;;;;;;5.83;87.64;100198.47;5069156;28;20386;-75
2020/12/08 08:50:22;;;;;;;1.92;1.70;;;;;;;5.92;87.60;100195.16;5068875;28;20074;-75
2020/12/08 08:52:48;;;;;;;2.03;1.23;;;;;;;6.04;86.41;100212.94;5050772;28;20024;-75
2020/12/08 08:55:13;;;;;;;1.30;1.20;;;;;;;5.97;86.21;100191.22;5068988;28;20035;-75
2020/12/08 08:57:40;;;;;;;2.03;1.50;;;;;;;6.13;86.03;100210.47;5050758;28;20032;-74
2020/12/08 09:00:10;;;;;;;2.17;1.48;;;;;;;6.06;84.53;100187.06;5068992;28;20097;-75
2020/12/08 09:02:37;;;;;;;2.10;1.52;;;;;;;6.24;85.35;100218.53;5068957;28;20055;-74
2020/12/08 09:05:05;;;;;;;1.73;1.42;;;;;;;6.24;85.61;100201.72;5068660;28;20028;-75
2020/12/08 09:07:30;;;;;;;2.97;2.00;;;;;;;6.20;85.07;100179.78;5068828;28;20028;-75
2020/12/08 09:09:57;;;;;;;2.47;1.63;;;;;;;6.34;85.39;100198.28;5068614;28;20033;-75
2020/12/08 09:12:23;;;;;;;2.75;2.08;;;;;;;6.20;85.04;100168.28;5069202;28;20025;-75
2020/12/08 09:14:50;;;;;;;2.60;1.70;;;;;;;6.34;85.13;100181.44;5072601;28;20035;-75
2020/12/08 09:17:16;;;;;;;2.45;1.88;;;;;;;6.29;85.63;100163.13;5072700;28;20082;-75
2020/12/08 09:19:42;;;;;;;3.38;2.17;;;;;;;6.48;85.44;100191.97;5072431;28;20028;-75
2020/12/08 09:22:07;;;;;;;2.65;1.83;;;;;;;6.49;85.58;100180.31;5071218;28;20028;-75
2020/12/08 09:24:33;;;;;;;2.75;1.17;;;;;;;6.47;82.47;100171.59;5054410;28;20611;-75
2020/12/08 09:27:00;;;;;;;2.97;1.25;;;;;;;6.60;81.62;100183.91;5054128;28;20389;-76
2020/12/08 09:29:26;;;;;;;4.82;2.20;;;;;;;6.51;80.22;100170.38;5072345;28;20524;-75
2020/12/08 09:31:56;;;;;;;2.38;1.42;;;;;;;6.58;79.58;100174.31;5072168;28;20420;-75
2020/12/08 09:34:22;;;;;;;1.80;1.30;;;;;;;6.69;80.40;100171.72;5051950;28;20054;-75
2020/12/08 09:36:49;;;;;;;2.38;1.65;;;;;;;6.77;80.92;100201.28;5071982;28;20067;-75
2020/12/08 09:39:14;;;;;;;1.90;1.50;;;;;;;6.62;81.84;100168.63;5053905;28;20039;-76
2020/12/08 09:41:41;;;;;;;2.00;1.80;;;;;;;6.60;81.66;100170.59;5070682;28;20020;-75
2020/12/08 09:44:09;;;;;;;1.95;1.50;;;;;;;6.81;81.16;100203.63;5072107;28;20028;-75
2020/12/08 09:46:34;;;;;;;2.58;1.60;;;;;;;6.64;81.86;100169.38;5072217;28;20027;-75
2020/12/08 09:49:00;;;;;;;4.85;1.55;;;;;;;6.80;81.36;100206.41;5072062;28;20032;-76
2020/12/08 09:51:25;;;;;;;2.42;1.50;;;;;;;6.52;80.43;100156.13;5071998;28;20062;-75
2020/12/08 09:53:51;;;;;;;3.20;1.55;;;;;;;6.60;80.85;100159.06;5053632;28;20029;-76
2020/12/08 09:56:16;;;;;;;2.65;1.90;;;;;;;6.63;81.31;100167.69;5071819;28;20154;-75
2020/12/08 09:58:42;;;;;;;3.05;1.80;;;;;;;6.55;81.36;100150.56;5071689;28;20021;-75
2020/12/08 10:01:07;;;;;;;3.45;1.88;;;;;;;6.65;81.83;100165.75;5071926;28;20032;-75
2020/12/08 10:03:35;;;;;;;3.63;1.90;;;;;;;6.74;82.35;100186.38;5071721;28;20039;-75
2020/12/08 10:06:02;;;;;;;3.47;1.88;;;;;;;6.74;83.37;100189.06;5071539;28;20028;-75
2020/12/08 10:08:28;;;;;;;3.35;2.10;;;;;;;6.63;82.58;100154.38;5071513;28;20048;-76
2020/12/08 10:10:53;;;;;;;6.15;2.30;;;;;;;6.64;82.67;100148.06;5071441;28;20067;-75
2020/12/08 10:13:19;;;;;;;3.40;2.03;;;;;;;6.67;83.44;100145.19;5071374;28;20020;-76
2020/12/08 10:15:44;;;;;;;3.28;2.08;;;;;;;6.66;82.68;100145.28;5071540;28;20036;-76
2020/12/08 10:18:09;;;;;;;2.80;2.40;;;;;;;6.86;82.39;100172.16;5071842;28;20142;-76
2020/12/08 10:20:36;;;;;;;3.00;2.10;;;;;;;6.94;82.28;100180.41;5071478;28;20024;-76
2020/12/08 10:23:02;;;;;;;2.92;2.10;;;;;;;7.02;81.88;100187.00;5069989;28;20036;-76
2020/12/08 10:25:28;;;;;;;3.38;2.30;;;;;;;6.93;81.97;100167.19;5071527;28;20524;-76
2020/12/08 10:27:53;;;;;;;3.38;2.35;;;;;;;7.04;80.93;100184.09;5071139;28;20055;-76
2020/12/08 10:30:19;;;;;;;3.88;2.17;;;;;;;6.92;80.76;100149.50;5071107;28;20020;-76
2020/12/08 10:32:44;;;;;;;5.20;2.60;;;;;;;7.13;81.03;100179.03;5071043;28;20021;-76
2020/12/08 10:35:10;;;;;;;3.92;2.13;;;;;;;7.06;80.57;100153.81;5070941;28;20043;-75
2020/12/08 10:37:35;;;;;;;4.93;2.25;;;;;;;7.19;81.34;100159.91;5070838;28;20020;-76
2020/12/08 10:40:01;;;;;;;2.65;2.45;;;;;;;6.95;80.90;100102.16;5070907;28;20039;-76
2020/12/08 10:42:26;;;;;;;2.63;2.40;;;;;;;7.30;80.67;100155.44;5052865;28;20398;-76
2020/12/08 10:44:52;;;;;;;4.13;2.45;;;;;;;7.06;80.65;100106.66;5071119;28;20031;-76
2020/12/08 10:47:17;;;;;;;4.28;2.17;;;;;;;7.18;80.90;100118.19;5067666;28;20017;-75
2020/12/08 10:49:43;;;;;;;4.28;2.20;;;;;;;7.18;80.83;100124.38;5071182;28;20104;-76
2020/12/08 10:52:08;;;;;;;4.70;2.42;;;;;;;7.35;80.61;100139.91;5070719;28;20020;-76
2020/12/08 10:54:33;;;;;;;2.70;2.28;;;;;;;7.32;80.15;100126.81;5070666;28;20100;-75
2020/12/08 10:56:59;;;;;;;3.15;2.30;;;;;;;7.29;79.34;100107.56;5070362;28;20381;-76
2020/12/08 10:59:24;;;;;;;2.40;2.20;;;;;;;7.36;79.12;100117.63;5070486;28;20021;-76
2020/12/08 11:01:50;;;;;;;2.80;2.05;;;;;;;7.41;79.01;100128.78;5069126;28;20034;-76
2020/12/08 11:04:15;;;;;;;3.20;2.10;;;;;;;7.23;79.15;100106.22;5052366;28;20032;-76
2020/12/08 11:06:45;;;;;;;2.60;1.95;;;;;;;7.26;78.77;100113.13;5070799;28;20363;-76
2020/12/08 11:09:10;;;;;;;4.47;1.75;;;;;;;7.14;79.71;100090.06;5068646;28;20383;-76
2020/12/08 11:11:35;;;;;;;1.80;1.52;;;;;;;7.32;79.03;100128.66;5070346;28;20036;-76
2020/12/08 11:14:01;;;;;;;1.90;1.70;;;;;;;7.22;78.77;100117.00;5052215;28;20056;-76
2020/12/08 11:16:27;;;;;;;2.50;1.88;;;;;;;7.30;79.16;100134.09;5070429;28;20044;-76
2020/12/08 11:18:53;;;;;;;1.48;1.38;;;;;;;7.18;78.77;100099.50;5069993;28;20028;-76
2020/12/08 11:21:27;;;;;;;2.00;1.70;;;;;;;7.32;77.88;100123.31;5052191;28;20024;-75
2020/12/08 11:23:54;;;;;;;1.90;1.67;;;;;;;7.31;78.13;100117.13;5069952;28;20028;-76
2020/12/08 11:26:20;;;;;;;3.63;1.80;;;;;;;7.35;77.40;100121.25;5069967;28;20071;-76
2020/12/08 11:28:45;;;;;;;3.00;2.58;;;;;;;7.44;77.54;100117.00;5052378;28;20024;-77
2020/12/08 11:31:11;;;;;;;2.15;1.73;;;;;;;7.49;77.89;100113.03;5070114;28;20070;-76
2020/12/08 11:33:36;;;;;;;1.90;1.70;;;;;;;7.46;76.97;100115.09;5069871;28;20070;-76
2020/12/08 11:36:02;;;;;;;1.83;1.65;;;;;;;7.48;76.68;100113.16;5069300;28;20513;-76
2020/12/08 11:38:27;;;;;;;2.35;1.98;;;;;;;7.12;75.55;100041.34;5069764;28;20067;-76
2020/12/08 11:40:53;;;;;;;4.45;2.53;;;;;;;7.34;75.92;100082.22;5069826;28;20524;-76
2020/12/08 11:43:19;;;;;;;3.72;2.00;;;;;;;7.51;76.08;100113.75;5051787;28;20489;-76
2020/12/08 11:45:46;;;;;;;2.78;1.88;;;;;;;7.33;75.75;100085.84;5070110;28;20071;-76
2020/12/08 11:48:11;;;;;;;2.33;1.70;;;;;;;7.47;76.13;100098.97;5052256;28;20020;-76
2020/12/08 11:50:37;;;;;;;2.72;1.90;;;;;;;7.39;75.78;100084.53;5051516;28;20016;-77
2020/12/08 11:53:02;;;;;;;2.22;1.65;;;;;;;7.54;76.39;100094.00;5069607;28;20043;-76
2020/12/08 11:55:28;;;;;;;3.25;2.47;;;;;;;7.47;76.50;100071.41;5069410;28;20020;-76
2020/12/08 11:57:53;;;;;;;3.22;2.85;;;;;;;7.68;77.46;100085.75;5069479;28;20020;-76
2020/12/08 12:00:19;;;;;;;2.95;2.65;;;;;;;7.56;78.54;100052.88;5069544;28;20039;-76